Time;durP1;ratioP1;P1;durP2;ratioP2;P2;SDS_P1;SDS_P2;PMS_P1;PMS_P2;Temp;Humidity;BMP_temperature;BMP_pressure;BME280_temperature;BME280_humidity;BME280_pressure;Samples;Min_cycle;Max_cycle;Signal;HPM_P1;HPM_P2
2023/05/06 00:00:56;;;;;;;3.92;1.95;;;;;;;19.86;49.91;101551.41;4964430;28;20935;-68
2023/05/06 00:03:22;;;;;;;3.72;1.90;;;;;;;19.85;49.96;101538.28;4995442;28;20035;-68
2023/05/06 00:05:48;;;;;;;4.25;2.28;;;;;;;19.86;49.83;101538.16;4954831;28;20464;-68
2023/05/06 00:08:13;;;;;;;3.42;1.90;;;;;;;19.85;49.71;101536.50;4951591;28;20040;-68
2023/05/06 00:10:39;;;;;;;7.50;2.17;;;;;;;19.86;49.80;101543.47;4960268;28;20032;-67
2023/05/06 00:13:04;;;;;;;4.05;2.47;;;;;;;19.86;49.68;101547.91;4959511;28;20039;-67
2023/05/06 00:15:29;;;;;;;3.83;2.00;;;;;;;19.84;49.89;101542.75;4976114;28;20037;-68
2023/05/06 00:17:55;;;;;;;3.85;2.00;;;;;;;19.84;49.65;101539.28;4961927;28;20283;-68
2023/05/06 00:20:20;;;;;;;3.80;2.00;;;;;;;19.83;49.64;101535.75;4944772;28;20058;-68
2023/05/06 00:22:46;;;;;;;4.15;2.13;;;;;;;19.82;49.55;101533.25;4959109;28;20037;-68
2023/05/06 00:25:11;;;;;;;3.90;2.20;;;;;;;19.82;49.80;101530.59;4963714;28;20112;-68
2023/05/06 00:27:37;;;;;;;4.32;2.30;;;;;;;19.83;49.50;101532.28;4963796;28;20034;-68
2023/05/06 00:30:03;;;;;;;4.07;2.58;;;;;;;19.79;49.54;101534.34;4964017;28;20171;-67
2023/05/06 00:32:28;;;;;;;4.93;2.38;;;;;;;19.80;49.51;101536.00;4963718;28;20075;-68
2023/05/06 00:34:54;;;;;;;4.25;2.20;;;;;;;19.82;49.50;101538.53;4963430;28;20027;-68
2023/05/06 00:37:19;;;;;;;4.43;2.40;;;;;;;19.80;49.50;101540.47;4952076;28;20042;-67
2023/05/06 00:39:44;;;;;;;4.03;2.30;;;;;;;19.81;49.47;101542.97;4963101;28;20267;-67
2023/05/06 00:42:10;;;;;;;4.53;2.20;;;;;;;19.80;49.51;101536.00;4963672;28;20062;-68
2023/05/06 00:44:35;;;;;;;3.92;2.10;;;;;;;19.79;49.31;101531.69;4952788;28;20031;-68
2023/05/06 00:47:01;;;;;;;4.40;2.17;;;;;;;19.78;49.52;101524.72;4944776;28;20034;-68
2023/05/06 00:49:28;;;;;;;4.03;2.20;;;;;;;19.78;49.33;101537.09;4960616;28;20352;-67
2023/05/06 00:51:55;;;;;;;4.60;2.30;;;;;;;19.78;49.46;101537.09;4947900;28;20027;-67
2023/05/06 00:54:20;;;;;;;5.18;2.60;;;;;;;19.78;49.54;101530.00;4944152;28;20407;-68
2023/05/06 00:56:46;;;;;;;3.60;2.10;;;;;;;19.76;49.34;101526.63;4959155;28;20043;-69
2023/05/06 00:59:11;;;;;;;4.72;2.40;;;;;;;19.74;49.28;101529.38;4962319;28;20034;-69
2023/05/06 01:01:36;;;;;;;3.55;2.10;;;;;;;19.76;49.18;101526.63;4962523;28;20046;-69
2023/05/06 01:04:02;;;;;;;4.07;2.17;;;;;;;19.74;49.29;101521.44;4958697;28;20101;-68
2023/05/06 01:06:53;;;;;;;3.80;2.30;;;;;;;19.75;49.07;101516.97;4948765;28;20035;-68
2023/05/06 01:09:32;;;;;;;4.82;2.17;;;;;;;19.73;49.37;101522.38;4952888;28;20073;-68
2023/05/06 01:12:11;;;;;;;3.45;2.10;;;;;;;19.73;49.02;101518.91;4990576;28;20038;-68
2023/05/06 01:14:50;;;;;;;4.55;2.50;;;;;;;19.71;49.28;101520.81;4944552;28;20046;-69
2023/05/06 01:17:17;;;;;;;4.22;2.35;;;;;;;19.73;48.94;101526.84;4944026;28;20031;-69
2023/05/06 01:19:52;;;;;;;4.75;2.50;;;;;;;19.73;49.10;101521.56;4943964;28;20126;-69
2023/05/06 01:22:18;;;;;;;5.65;2.40;;;;;;;19.72;48.98;101519.84;4954070;28;20101;-68
2023/05/06 01:24:44;;;;;;;4.32;2.40;;;;;;;19.72;48.95;101519.84;4952096;28;20058;-68
2023/05/06 01:27:12;;;;;;;3.97;2.20;;;;;;;19.70;49.18;101513.84;4943794;28;20094;-68
2023/05/06 01:29:40;;;;;;;6.18;2.40;;;;;;;19.69;48.93;101510.38;4944759;28;20031;-69
2023/05/06 01:32:24;;;;;;;3.85;2.22;;;;;;;19.70;48.93;101513.84;4977771;28;20448;-68
2023/05/06 01:34:58;;;;;;;3.90;2.30;;;;;;;19.71;48.98;101513.75;4957993;28;20094;-68
2023/05/06 01:37:28;;;;;;;4.10;2.15;;;;;;;19.72;48.60;101518.03;4958318;28;20121;-68
2023/05/06 01:39:58;;;;;;;4.63;2.38;;;;;;;19.69;48.74;101514.81;4957949;28;20031;-68
2023/05/06 01:42:26;;;;;;;3.90;2.10;;;;;;;19.69;48.78;101510.38;4959906;28;20038;-69
2023/05/06 01:44:54;;;;;;;3.95;2.22;;;;;;;19.68;48.99;101516.63;4943556;28;20178;-67
2023/05/06 01:47:20;;;;;;;3.83;2.08;;;;;;;19.68;48.63;101516.63;4958538;28;20121;-68
2023/05/06 01:49:46;;;;;;;4.28;2.33;;;;;;;19.67;48.69;101520.22;4962542;28;20133;-68
2023/05/06 01:52:14;;;;;;;3.72;2.05;;;;;;;19.67;48.60;101522.84;4957597;28;20039;-68
2023/05/06 01:54:39;;;;;;;4.90;2.70;;;;;;;19.66;48.62;101525.63;4962008;28;20518;-68
2023/05/06 01:57:04;;;;;;;4.83;2.27;;;;;;;19.66;48.50;101537.06;4949434;28;20075;-68
2023/05/06 01:59:29;;;;;;;4.32;2.53;;;;;;;19.66;48.47;101528.25;4959874;28;20280;-68
2023/05/06 02:01:55;;;;;;;4.43;2.20;;;;;;;19.64;48.57;101528.38;4949138;28;20468;-68
2023/05/06 02:04:20;;;;;;;4.13;2.43;;;;;;;19.65;48.27;101530.06;4962233;28;20264;-67
2023/05/06 02:06:45;;;;;;;4.53;2.40;;;;;;;19.65;48.32;101529.25;4951345;28;20315;-68
2023/05/06 02:09:10;;;;;;;4.30;2.28;;;;;;;19.64;48.43;101530.19;4962053;28;20753;-68
2023/05/06 02:11:36;;;;;;;4.03;2.40;;;;;;;19.63;48.10;101529.34;4960696;28;20035;-68
2023/05/06 02:14:01;;;;;;;4.10;2.45;;;;;;;19.63;48.41;101533.78;4949292;28;20035;-69
2023/05/06 02:16:29;;;;;;;4.03;2.20;;;;;;;19.63;48.19;101541.72;4958301;28;20031;-69
2023/05/06 02:18:55;;;;;;;3.85;2.20;;;;;;;19.62;48.21;101548.81;4966105;28;20268;-68
2023/05/06 02:21:20;;;;;;;4.65;2.28;;;;;;;19.61;48.29;101541.00;4954817;28;20138;-68
2023/05/06 02:23:45;;;;;;;4.30;2.25;;;;;;;19.60;48.64;101545.47;4951175;28;20042;-68
2023/05/06 02:26:11;;;;;;;4.57;2.53;;;;;;;19.62;48.29;101551.47;4985717;28;20035;-68
2023/05/06 02:28:36;;;;;;;4.43;2.72;;;;;;;19.61;48.22;101546.28;4962381;28;20749;-69
2023/05/06 02:31:01;;;;;;;3.75;2.17;;;;;;;19.59;48.19;101541.13;4966268;28;20045;-68
2023/05/06 02:33:26;;;;;;;3.97;2.08;;;;;;;19.57;48.10;101541.22;4965891;28;20133;-68
2023/05/06 02:35:52;;;;;;;4.35;2.42;;;;;;;19.57;48.15;101546.53;4962055;28;20039;-68
2023/05/06 02:38:18;;;;;;;4.45;2.35;;;;;;;19.57;47.78;101546.53;4946856;28;20035;-68
2023/05/06 02:40:43;;;;;;;4.50;2.40;;;;;;;19.57;47.89;101543.88;4946655;28;20046;-69
2023/05/06 02:43:09;;;;;;;4.13;2.28;;;;;;;19.58;48.07;101548.22;4946748;28;20031;-69
2023/05/06 02:45:34;;;;;;;4.25;2.42;;;;;;;19.52;48.27;101526.69;4954931;28;20053;-68
2023/05/06 02:47:59;;;;;;;4.00;2.20;;;;;;;19.56;47.91;101539.53;4965840;28;20664;-68
2023/05/06 02:50:25;;;;;;;5.20;2.23;;;;;;;19.56;47.95;101531.59;4965693;28;20035;-69
2023/05/06 02:52:50;;;;;;;3.63;2.17;;;;;;;19.57;47.94;101537.75;4958681;28;20289;-69
2023/05/06 02:55:17;;;;;;;4.22;2.20;;;;;;;19.54;48.10;101530.88;4946209;28;20058;-68
2023/05/06 02:57:43;;;;;;;3.70;2.05;;;;;;;19.54;48.11;101532.69;4946501;28;20027;-68
2023/05/06 03:00:09;;;;;;;3.83;2.00;;;;;;;19.55;48.15;101534.38;4977545;28;20342;-68
2023/05/06 03:02:35;;;;;;;4.22;2.10;;;;;;;19.54;48.03;101536.19;4946623;28;20058;-68
2023/05/06 03:05:03;;;;;;;4.32;2.38;;;;;;;19.53;47.99;101531.00;4958681;28;20037;-69
2023/05/06 03:07:28;;;;;;;3.95;2.47;;;;;;;19.54;47.95;101541.47;4965701;28;20480;-68
2023/05/06 03:09:54;;;;;;;4.53;2.53;;;;;;;19.53;47.70;101536.28;4947097;28;20035;-68
2023/05/06 03:12:20;;;;;;;3.70;2.08;;;;;;;19.51;47.81;101535.56;4949825;28;20119;-68
2023/05/06 03:14:45;;;;;;;4.50;2.30;;;;;;;19.50;47.81;101526.81;4954684;28;20494;-69
2023/05/06 03:17:10;;;;;;;3.53;2.00;;;;;;;19.50;47.88;101526.81;4959504;28;20077;-68
2023/05/06 03:19:35;;;;;;;3.30;1.90;;;;;;;19.53;47.78;101525.72;4958525;28;20034;-69
2023/05/06 03:22:01;;;;;;;4.07;2.27;;;;;;;19.52;47.69;101529.34;4961923;28;20049;-69
2023/05/06 03:24:26;;;;;;;3.75;2.10;;;;;;;19.51;47.74;101528.47;4949390;28;20308;-68
2023/05/06 03:26:51;;;;;;;4.07;2.17;;;;;;;19.52;47.50;101532.00;4988673;28;20043;-68
2023/05/06 03:29:16;;;;;;;5.40;2.45;;;;;;;19.49;47.82;101527.75;4950891;28;20045;-68
2023/05/06 03:31:42;;;;;;;4.32;2.00;;;;;;;19.51;47.69;101525.00;4960320;28;20037;-69
2023/05/06 03:34:07;;;;;;;3.45;2.10;;;;;;;19.50;47.56;101521.53;4953263;28;20036;-68
2023/05/06 03:36:32;;;;;;;4.10;2.13;;;;;;;19.49;47.67;101519.84;4954750;28;20046;-69
2023/05/06 03:38:57;;;;;;;3.60;1.98;;;;;;;19.49;47.53;101513.72;4955912;28;20118;-68
2023/05/06 03:41:23;;;;;;;4.05;2.20;;;;;;;19.49;47.54;101519.84;4960650;28;20038;-69
2023/05/06 03:43:49;;;;;;;3.97;2.10;;;;;;;19.48;47.73;101512.03;4949060;28;20046;-69
2023/05/06 03:46:14;;;;;;;4.97;2.25;;;;;;;19.50;47.57;101520.66;4951468;28;20042;-68
2023/05/06 03:48:39;;;;;;;3.97;2.10;;;;;;;19.49;47.44;101521.66;4956171;28;20034;-70
2023/05/06 03:51:04;;;;;;;3.95;2.28;;;;;;;19.40;47.44;101512.59;4955957;28;20055;-69
2023/05/06 03:53:30;;;;;;;5.55;2.35;;;;;;;19.48;47.41;101533.16;4954063;28;20031;-69
2023/05/06 03:55:55;;;;;;;4.00;2.20;;;;;;;19.45;47.36;101526.31;4950332;28;20039;-67
2023/05/06 03:58:20;;;;;;;4.47;2.30;;;;;;;19.45;47.35;101523.66;4953004;28;20095;-68
2023/05/06 04:00:46;;;;;;;5.10;2.33;;;;;;;19.46;47.47;101533.28;4952564;28;20066;-68
2023/05/06 04:03:11;;;;;;;3.95;2.10;;;;;;;19.47;47.31;101532.34;4986889;28;20093;-68
2023/05/06 04:05:36;;;;;;;4.25;2.30;;;;;;;19.47;47.35;101531.47;4958457;28;20548;-68
2023/05/06 04:08:02;;;;;;;4.57;2.38;;;;;;;19.45;47.62;101534.22;4954816;28;20046;-68
2023/05/06 04:10:27;;;;;;;3.72;2.10;;;;;;;19.39;47.46;101524.97;4955410;28;20027;-68
2023/05/06 04:12:52;;;;;;;4.07;2.17;;;;;;;19.43;47.56;101535.31;4955061;28;20039;-68
2023/05/06 04:15:18;;;;;;;4.85;2.20;;;;;;;19.43;47.31;101533.50;4954823;28;20035;-67
2023/05/06 04:17:43;;;;;;;3.95;2.10;;;;;;;19.42;47.71;101530.97;4956993;28;20035;-67
2023/05/06 04:20:10;;;;;;;3.88;2.00;;;;;;;19.44;47.66;101537.84;4953480;28;20145;-68
2023/05/06 04:22:37;;;;;;;4.18;2.03;;;;;;;19.42;47.23;101536.28;4955533;28;20031;-68
2023/05/06 04:25:02;;;;;;;3.80;2.20;;;;;;;19.41;47.16;101532.78;4951903;28;20387;-69
2023/05/06 04:27:28;;;;;;;4.78;2.08;;;;;;;19.42;47.17;101536.28;4954889;28;20141;-69
2023/05/06 04:29:54;;;;;;;4.50;2.28;;;;;;;19.42;47.42;101545.03;4952104;28;20039;-69
2023/05/06 04:32:20;;;;;;;4.15;2.03;;;;;;;19.39;47.12;101538.19;4950586;28;20170;-69
2023/05/06 04:34:46;;;;;;;4.47;2.15;;;;;;;19.40;47.39;101539.03;4954080;28;20536;-68
2023/05/06 04:37:12;;;;;;;5.80;2.58;;;;;;;19.40;47.24;101539.03;4954192;28;20031;-69
2023/05/06 04:39:38;;;;;;;5.85;2.65;;;;;;;19.39;47.39;101535.56;4957156;28;20532;-68
2023/05/06 04:42:03;;;;;;;4.20;2.40;;;;;;;19.39;47.36;101540.84;4957003;28;20122;-69
2023/05/06 04:44:29;;;;;;;3.83;2.10;;;;;;;19.41;47.11;101543.38;4951208;28;20122;-68
2023/05/06 04:46:55;;;;;;;4.75;2.20;;;;;;;19.40;47.29;101544.31;4982021;28;20098;-68
2023/05/06 04:49:20;;;;;;;4.10;2.28;;;;;;;19.40;47.30;101547.78;4952176;28;20077;-67
2023/05/06 04:51:46;;;;;;;4.13;2.22;;;;;;;19.39;47.23;101548.78;4954781;28;20035;-69
2023/05/06 04:54:11;;;;;;;3.53;1.90;;;;;;;19.39;47.49;101546.13;4958592;28;20769;-68
2023/05/06 04:56:36;;;;;;;3.78;2.00;;;;;;;19.38;47.24;101552.38;4986127;28;20034;-68
2023/05/06 04:59:01;;;;;;;3.67;1.98;;;;;;;19.38;47.20;101556.81;4953896;28;20082;-68
2023/05/06 05:01:27;;;;;;;3.65;1.95;;;;;;;19.38;47.19;101554.16;4952488;28;20122;-68
2023/05/06 05:03:52;;;;;;;4.50;1.95;;;;;;;19.37;47.32;101553.31;4955911;28;20050;-67
2023/05/06 05:06:17;;;;;;;4.50;2.20;;;;;;;19.37;47.24;101555.13;4957004;28;20066;-68
2023/05/06 05:08:43;;;;;;;3.70;2.00;;;;;;;19.37;47.36;101560.41;4950250;28;20277;-68
2023/05/06 05:11:08;;;;;;;3.33;1.80;;;;;;;19.37;47.43;101558.59;4954127;28;20039;-67
2023/05/06 05:13:34;;;;;;;3.92;2.25;;;;;;;19.36;47.27;101567.50;4951078;28;20097;-68
2023/05/06 05:15:59;;;;;;;3.38;1.80;;;;;;;19.38;47.45;101573.50;4953619;28;20503;-68
2023/05/06 05:18:25;;;;;;;3.80;2.10;;;;;;;19.36;47.32;101564.03;4951857;28;20042;-69
2023/05/06 05:20:50;;;;;;;5.88;2.10;;;;;;;19.36;47.47;101569.31;4945795;28;20117;-68
2023/05/06 05:23:16;;;;;;;4.03;1.92;;;;;;;19.35;47.56;101567.63;4950543;28;20031;-69
2023/05/06 05:25:41;;;;;;;3.83;2.10;;;;;;;19.38;47.26;101572.69;4957925;28;20051;-69
2023/05/06 05:28:06;;;;;;;3.80;2.10;;;;;;;19.36;47.44;101575.44;4953794;28;20033;-69
2023/05/06 05:30:31;;;;;;;5.05;2.25;;;;;;;19.36;47.34;101579.88;4948635;28;20033;-69
2023/05/06 05:32:57;;;;;;;3.85;1.98;;;;;;;19.35;47.18;101584.31;4957451;28;20035;-69
2023/05/06 05:35:22;;;;;;;4.13;2.08;;;;;;;19.36;47.52;101588.66;4993935;28;20118;-69
2023/05/06 05:37:48;;;;;;;3.90;2.08;;;;;;;19.37;47.58;101587.66;4959562;28;20042;-69
2023/05/06 05:40:13;;;;;;;4.47;1.80;;;;;;;19.36;47.40;101590.47;4944035;28;20078;-68
2023/05/06 05:42:39;;;;;;;4.45;2.03;;;;;;;19.38;47.37;101599.94;4962816;28;20034;-68
2023/05/06 05:45:05;;;;;;;3.83;1.80;;;;;;;19.37;47.46;101594.75;4946216;28;20038;-68
2023/05/06 05:47:30;;;;;;;4.40;1.80;;;;;;;19.39;47.65;101592.84;4961904;28;20027;-68
2023/05/06 05:49:55;;;;;;;3.50;1.80;;;;;;;19.38;47.50;101592.00;4944255;28;20039;-69
2023/05/06 05:52:20;;;;;;;2.80;1.47;;;;;;;19.37;47.51;101592.97;4960782;28;20057;-69
2023/05/06 05:54:46;;;;;;;4.72;1.90;;;;;;;19.42;47.68;101595.25;4951625;28;21469;-69
2023/05/06 05:57:11;;;;;;;3.67;1.85;;;;;;;19.46;47.62;101591.44;4949486;28;20042;-70
2023/05/06 05:59:36;;;;;;;3.90;1.75;;;;;;;19.49;47.85;101587.72;4957153;28;20814;-69
2023/05/06 06:02:02;;;;;;;4.88;1.95;;;;;;;19.50;47.64;101592.91;4951941;28;20035;-69
2023/05/06 06:04:27;;;;;;;4.18;2.13;;;;;;;19.50;47.74;101584.13;4985967;28;20030;-69
2023/05/06 06:06:52;;;;;;;3.95;1.80;;;;;;;19.51;47.93;101591.09;4952981;28;21165;-69
2023/05/06 06:09:17;;;;;;;3.45;1.85;;;;;;;19.53;47.52;101583.88;4954867;28;20118;-69
2023/05/06 06:11:43;;;;;;;5.00;1.92;;;;;;;19.53;47.51;101587.34;4946465;28;20039;-68
2023/05/06 06:14:08;;;;;;;4.68;1.80;;;;;;;19.53;47.71;101589.16;4977196;28;20066;-68
2023/05/06 06:16:35;;;;;;;4.75;1.70;;;;;;;19.51;48.01;101583.16;4948795;28;20069;-70
2023/05/06 06:19:00;;;;;;;4.40;1.67;;;;;;;19.47;47.96;101589.63;4949399;28;20117;-69
2023/05/06 06:21:26;;;;;;;4.43;1.73;;;;;;;19.45;48.21;101581.81;4950855;28;20130;-70
2023/05/06 06:23:51;;;;;;;4.78;2.05;;;;;;;19.48;48.16;101588.69;4955604;28;20038;-67
2023/05/06 06:26:17;;;;;;;3.20;1.70;;;;;;;19.43;48.19;101586.38;4948959;28;20683;-67
2023/05/06 06:28:43;;;;;;;5.87;1.97;;;;;;;19.45;48.23;101594.19;4951811;28;20114;-68
2023/05/06 06:31:08;;;;;;;7.22;1.88;;;;;;;19.44;48.68;101595.13;4953812;28;20348;-68
2023/05/06 06:33:34;;;;;;;3.80;1.63;;;;;;;19.43;48.70;101589.03;4950497;28;20230;-67
2023/05/06 06:35:59;;;;;;;3.83;1.65;;;;;;;19.43;48.73;101594.31;4958838;28;20039;-68
2023/05/06 06:38:24;;;;;;;3.60;1.50;;;;;;;19.45;48.86;101595.03;4952657;28;20114;-69
2023/05/06 06:40:50;;;;;;;3.97;1.85;;;;;;;19.45;49.03;101597.66;4959971;28;20035;-68
2023/05/06 06:43:15;;;;;;;4.07;1.75;;;;;;;19.48;49.24;101599.25;4957277;28;20038;-67
2023/05/06 06:45:40;;;;;;;4.32;1.80;;;;;;;19.48;49.18;101604.53;4946579;28;20039;-69
2023/05/06 06:48:06;;;;;;;3.78;1.60;;;;;;;19.50;48.96;101607.91;4951675;28;20042;-68
2023/05/06 06:50:31;;;;;;;4.45;1.73;;;;;;;19.51;49.24;101602.50;4956509;28;20113;-68
2023/05/06 06:52:57;;;;;;;3.88;1.60;;;;;;;19.52;49.47;101606.00;4950221;28;20046;-69
2023/05/06 06:55:22;;;;;;;5.30;2.10;;;;;;;19.53;49.82;101600.56;4953566;28;20035;-68
2023/05/06 06:57:47;;;;;;;5.85;1.88;;;;;;;19.52;49.97;101601.56;4951716;28;20058;-68
2023/05/06 07:00:13;;;;;;;4.80;1.60;;;;;;;19.55;49.65;101603.97;4954093;28;20090;-70
2023/05/06 07:02:38;;;;;;;4.68;1.65;;;;;;;19.54;49.55;101602.28;4953570;28;20146;-70
2023/05/06 07:05:04;;;;;;;5.03;1.60;;;;;;;19.59;49.64;101607.22;4988895;28;20046;-69
2023/05/06 07:07:29;;;;;;;3.55;1.60;;;;;;;19.58;50.04;101603.75;4955622;28;20035;-68
2023/05/06 07:09:56;;;;;;;4.18;1.70;;;;;;;19.56;49.70;101603.00;4952650;28;20053;-70
2023/05/06 07:12:23;;;;;;;5.45;1.80;;;;;;;19.62;49.89;101608.81;4955215;28;20045;-71
2023/05/06 07:14:48;;;;;;;6.97;2.30;;;;;;;19.61;50.46;101604.47;4955189;28;21180;-70
2023/05/06 07:17:14;;;;;;;10.52;3.55;;;;;;;19.61;52.17;101613.22;4957439;28;20050;-69
2023/05/06 07:19:39;;;;;;;7.47;2.70;;;;;;;19.65;53.27;101612.03;4958277;28;20031;-69
2023/05/06 07:22:04;;;;;;;7.53;2.70;;;;;;;19.65;53.20;101605.94;4958800;28;20761;-68
2023/05/06 07:24:29;;;;;;;9.45;2.95;;;;;;;19.65;53.90;101608.56;4950183;28;20289;-68
2023/05/06 07:26:55;;;;;;;6.45;2.85;;;;;;;19.69;53.92;101613.50;4951972;28;20035;-69
2023/05/06 07:29:20;;;;;;;7.93;2.75;;;;;;;19.70;54.11;101617.00;4954367;28;20312;-69
2023/05/06 07:31:46;;;;;;;7.22;3.00;;;;;;;19.71;54.17;101613.38;4954748;28;20483;-68
2023/05/06 07:34:11;;;;;;;9.07;3.27;;;;;;;19.72;54.21;101621.19;4948870;28;20050;-69
2023/05/06 07:36:39;;;;;;;5.43;3.03;;;;;;;19.73;54.33;101620.22;4955427;28;20415;-70
2023/05/06 07:39:05;;;;;;;7.03;2.35;;;;;;;19.74;54.37;101616.63;4992211;28;20041;-70
2023/05/06 07:41:31;;;;;;;7.07;2.97;;;;;;;19.75;54.03;101622.75;4957048;28;20885;-68
2023/05/06 07:43:56;;;;;;;6.43;2.88;;;;;;;19.74;54.06;101613.13;4979204;28;20031;-69
2023/05/06 07:46:21;;;;;;;5.90;2.65;;;;;;;19.75;54.09;101623.59;4956695;28;20546;-68
2023/05/06 07:48:46;;;;;;;8.90;2.67;;;;;;;19.76;53.81;101621.84;4987204;28;20039;-69
2023/05/06 07:51:12;;;;;;;6.85;2.63;;;;;;;19.78;54.06;101616.44;4957016;28;20118;-68
2023/05/06 07:53:39;;;;;;;10.80;3.13;;;;;;;19.78;53.68;101617.28;4955612;28;20031;-68
2023/05/06 07:56:04;;;;;;;6.82;2.80;;;;;;;19.78;53.52;101616.44;4951834;28;20400;-69
2023/05/06 07:58:30;;;;;;;6.65;2.50;;;;;;;19.77;53.31;101620.88;4956489;28;20027;-68
2023/05/06 08:00:56;;;;;;;6.93;3.08;;;;;;;19.80;53.42;101620.63;4950361;28;20035;-69
2023/05/06 08:03:21;;;;;;;6.13;2.70;;;;;;;19.80;53.11;101622.44;4948748;28;20097;-68
2023/05/06 08:05:49;;;;;;;6.72;3.15;;;;;;;19.80;53.31;101618.00;4952371;28;20472;-68
2023/05/06 08:08:14;;;;;;;6.32;2.75;;;;;;;19.79;53.21;101620.75;4954836;28;20256;-67
2023/05/06 08:10:40;;;;;;;7.40;2.75;;;;;;;19.81;53.37;101619.69;4954842;28;20372;-66
2023/05/06 08:13:05;;;;;;;8.18;3.05;;;;;;;19.78;53.52;101613.78;4987690;28;20070;-67
2023/05/06 08:15:30;;;;;;;6.77;2.97;;;;;;;19.80;53.45;101623.28;4945922;28;20444;-66
2023/05/06 08:17:56;;;;;;;6.32;2.60;;;;;;;19.79;53.37;101623.41;4947465;28;20344;-68
2023/05/06 08:20:22;;;;;;;5.85;2.60;;;;;;;19.80;53.71;101628.56;4980363;28;20031;-67
2023/05/06 08:22:47;;;;;;;6.28;2.90;;;;;;;19.81;53.50;101627.63;4958543;28;20043;-66
2023/05/06 08:25:12;;;;;;;6.77;2.70;;;;;;;19.81;53.28;101618.84;4950972;28;20043;-68
2023/05/06 08:27:38;;;;;;;8.57;3.00;;;;;;;19.80;53.22;101618.00;4957996;28;20279;-69
2023/05/06 08:30:04;;;;;;;5.60;2.60;;;;;;;19.82;53.16;101621.38;4960501;28;20038;-69
2023/05/06 08:32:29;;;;;;;7.28;2.78;;;;;;;19.82;53.20;101624.03;4949155;28;20035;-69
2023/05/06 08:34:54;;;;;;;8.50;2.65;;;;;;;19.83;53.08;101620.41;4987946;28;20089;-73
2023/05/06 08:37:21;;;;;;;6.35;2.70;;;;;;;19.84;52.94;101618.63;4979764;28;20146;-70
2023/05/06 08:39:46;;;;;;;6.20;2.50;;;;;;;19.84;52.67;101614.16;4949844;28;20126;-69
2023/05/06 08:42:11;;;;;;;5.70;2.75;;;;;;;19.84;52.67;101621.28;4956839;28;20408;-69
2023/05/06 08:44:37;;;;;;;7.65;2.55;;;;;;;19.84;52.56;101613.34;4954151;28;20034;-69
2023/05/06 08:47:02;;;;;;;6.97;2.80;;;;;;;19.77;52.62;101605.00;4950543;28;20472;-68
2023/05/06 08:49:28;;;;;;;7.60;2.65;;;;;;;19.85;52.50;101607.94;4958585;28;20149;-69
2023/05/06 08:51:54;;;;;;;6.05;2.30;;;;;;;19.85;52.70;101607.06;4954981;28;20125;-71
2023/05/06 08:54:23;;;;;;;7.00;2.35;;;;;;;19.88;52.56;101607.66;4951478;28;20122;-69
2023/05/06 08:56:52;;;;;;;7.38;2.53;;;;;;;19.97;52.37;101605.28;4950703;28;20043;-70
2023/05/06 08:59:22;;;;;;;10.88;2.30;;;;;;;20.00;52.33;101599.78;4951633;28;20030;-72
2023/05/06 09:01:47;;;;;;;8.02;2.88;;;;;;;20.03;52.25;101603.00;4955652;28;20038;-75
2023/05/06 09:04:15;;;;;;;6.50;2.60;;;;;;;20.03;52.13;101600.38;4953214;28;20035;-75
2023/05/06 09:06:40;;;;;;;6.45;2.13;;;;;;;20.00;52.01;101591.84;4954025;28;20124;-70
2023/05/06 09:09:06;;;;;;;6.03;2.45;;;;;;;20.01;52.19;101597.00;4953639;28;20071;-73
2023/05/06 09:11:31;;;;;;;7.90;2.58;;;;;;;19.94;52.24;101593.13;4957361;28;20479;-74
2023/05/06 09:14:13;;;;;;;5.18;2.40;;;;;;;19.89;52.42;101585.56;4951855;28;20156;-74
2023/05/06 09:16:41;;;;;;;8.10;2.40;;;;;;;19.90;52.31;101592.53;4951983;28;20030;-75
2023/05/06 09:19:06;;;;;;;6.35;2.40;;;;;;;19.90;52.42;101597.81;4951863;28;20063;-71
2023/05/06 09:21:37;;;;;;;6.05;2.60;;;;;;;19.89;52.25;101597.94;4956924;28;20504;-72
2023/05/06 09:24:05;;;;;;;4.50;2.13;;;;;;;19.87;52.23;101594.59;4949406;28;20705;-74
2023/05/06 09:26:32;;;;;;;4.55;1.90;;;;;;;19.89;52.03;101596.13;4951842;28;20039;-73
2023/05/06 09:28:58;;;;;;;5.95;2.20;;;;;;;19.98;51.85;101593.72;4951054;28;20041;-73
2023/05/06 09:31:25;;;;;;;4.45;2.10;;;;;;;20.09;51.74;101591.94;4959106;28;20530;-73
2023/05/06 09:33:51;;;;;;;5.45;1.80;;;;;;;20.13;51.34;101589.91;4953862;28;20412;-71
2023/05/06 09:36:17;;;;;;;8.38;2.00;;;;;;;20.17;51.19;101593.13;4962352;28;20089;-70
2023/05/06 09:38:42;;;;;;;5.10;2.20;;;;;;;20.20;51.15;101592.91;4953775;28;20039;-70
2023/05/06 09:41:08;;;;;;;4.50;1.80;;;;;;;20.16;51.06;101584.38;4954868;28;20039;-71
2023/05/06 09:43:36;;;;;;;6.25;2.20;;;;;;;20.16;51.11;101584.38;4955653;28;20347;-72
2023/05/06 09:46:02;;;;;;;5.25;2.00;;;;;;;20.14;51.25;101588.94;4953126;28;20034;-70
2023/05/06 09:48:29;;;;;;;6.30;2.20;;;;;;;20.13;50.82;101584.63;4945305;28;20027;-70
2023/05/06 09:50:55;;;;;;;4.85;1.80;;;;;;;20.07;51.33;101579.78;4983861;28;20070;-71
2023/05/06 09:53:22;;;;;;;5.07;1.90;;;;;;;20.07;51.31;101582.44;4950884;28;20043;-71
2023/05/06 09:55:47;;;;;;;7.18;2.00;;;;;;;20.07;51.46;101585.09;4953157;28;20038;-71
2023/05/06 09:58:15;;;;;;;4.35;1.88;;;;;;;20.06;51.53;101578.97;4954848;28;20039;-70
2023/05/06 10:00:41;;;;;;;4.20;1.70;;;;;;;20.08;51.19;101578.84;4955412;28;20038;-69
2023/05/06 10:03:07;;;;;;;6.75;2.00;;;;;;;20.06;51.39;101578.09;4960517;28;20711;-70
2023/05/06 10:05:34;;;;;;;5.38;2.00;;;;;;;20.06;51.33;101578.97;4952621;28;20039;-69
2023/05/06 10:08:00;;;;;;;4.65;1.92;;;;;;;20.08;51.15;101574.38;4953622;28;20039;-69
2023/05/06 10:10:26;;;;;;;5.20;2.08;;;;;;;20.17;51.12;101579.91;4955808;28;20122;-70
2023/05/06 10:12:52;;;;;;;4.35;1.70;;;;;;;20.25;50.88;101572.19;4956445;28;20034;-68
2023/05/06 10:15:17;;;;;;;3.60;1.58;;;;;;;20.27;50.86;101567.66;4956190;28;20031;-71
2023/05/06 10:17:46;;;;;;;5.47;2.00;;;;;;;20.25;50.81;101570.41;4956893;28;20126;-70
2023/05/06 10:20:13;;;;;;;5.22;1.75;;;;;;;20.23;51.03;101568.84;4948305;28;20054;-69
2023/05/06 10:22:55;;;;;;;4.75;1.50;;;;;;;20.21;50.98;101566.31;4953090;28;20138;-69
2023/05/06 10:25:36;;;;;;;4.43;1.67;;;;;;;20.18;50.77;101558.63;4959397;28;20058;-70
2023/05/06 10:28:04;;;;;;;3.97;1.50;;;;;;;20.19;50.86;101565.59;4954553;28;20041;-70
2023/05/06 10:30:35;;;;;;;4.18;1.30;;;;;;;20.17;50.85;101567.53;4950865;28;20055;-69
2023/05/06 10:33:09;;;;;;;4.72;2.00;;;;;;;20.14;51.01;101554.56;4948117;28;20483;-68
2023/05/06 10:35:40;;;;;;;4.72;1.58;;;;;;;20.14;51.20;101559.84;4952446;28;20719;-69
2023/05/06 10:38:22;;;;;;;5.40;1.70;;;;;;;20.12;51.51;101561.75;4958031;28;20046;-70
2023/05/06 10:40:48;;;;;;;6.78;1.42;;;;;;;20.09;51.33;101552.25;4961371;28;20572;-68
2023/05/06 10:43:30;;;;;;;4.30;1.50;;;;;;;20.10;51.57;101550.44;4959226;28;20101;-68
2023/05/06 10:46:15;;;;;;;4.63;1.73;;;;;;;20.08;51.53;101549.72;4953554;28;20499;-69
2023/05/06 10:49:07;;;;;;;5.50;1.75;;;;;;;20.10;51.67;101551.28;4962101;28;20061;-71
2023/05/06 10:51:33;;;;;;;9.48;1.95;;;;;;;20.10;51.74;101553.94;4956396;28;20066;-69
2023/05/06 10:54:06;;;;;;;7.68;2.85;;;;;;;20.11;51.57;101550.31;4953623;28;20031;-68
2023/05/06 10:56:36;;;;;;;7.07;2.47;;;;;;;20.08;51.47;101537.34;4960825;28;20050;-68
2023/05/06 10:59:06;;;;;;;5.80;1.77;;;;;;;20.11;51.73;101547.69;4957536;28;20480;-70
2023/05/06 11:01:32;;;;;;;6.00;1.90;;;;;;;20.10;51.83;101545.16;4958843;28;20035;-69
2023/05/06 11:04:03;;;;;;;6.00;1.75;;;;;;;20.10;51.73;101550.44;4979154;28;20066;-68
2023/05/06 11:06:40;;;;;;;3.78;1.50;;;;;;;20.08;52.05;101542.63;4962750;28;20038;-68
2023/05/06 11:09:20;;;;;;;4.93;1.80;;;;;;;20.08;51.81;101533.84;4954582;28;20049;-69
2023/05/06 11:12:04;;;;;;;5.13;1.65;;;;;;;20.09;51.87;101540.81;4951798;28;20086;-68
2023/05/06 11:14:35;;;;;;;4.22;1.80;;;;;;;20.08;51.73;101537.34;4960220;28;20039;-70
2023/05/06 11:17:02;;;;;;;5.28;1.50;;;;;;;20.09;51.80;101533.75;4960222;28;20042;-68
2023/05/06 11:19:30;;;;;;;6.95;1.92;;;;;;;20.07;51.75;101529.53;4958636;28;20118;-68
2023/05/06 11:21:57;;;;;;;6.40;1.65;;;;;;;20.17;51.42;101526.97;4950719;28;20039;-68